Time;durP1;ratioP1;P1;durP2;ratioP2;P2;SDS_P1;SDS_P2;PMS_P1;PMS_P2;Temp;Humidity;BMP_temperature;BMP_pressure;BME280_temperature;BME280_humidity;BME280_pressure;Samples;Min_cycle;Max_cycle;Signal;HPM_P1;HPM_P2
2022/04/03 00:01:01;;;;;;;1.70;1.60;;;;;;;0.75;78.95;97331.27;104767;1274;74754;-26
2022/04/03 00:03:31;;;;;;;2.00;1.70;;;;;;;0.80;78.67;97334.19;104788;1274;74845;-27
2022/04/03 00:06:01;;;;;;;2.80;2.20;;;;;;;0.57;79.51;97330.61;104688;1271;74412;-27
2022/04/03 00:08:31;;;;;;;2.30;2.10;;;;;;;0.34;80.82;97328.23;104795;1273;61152;-27
2022/04/03 00:11:02;;;;;;;2.60;2.40;;;;;;;0.14;81.74;97327.14;104892;1274;61043;-27
2022/04/03 00:13:32;;;;;;;2.70;2.40;;;;;;;0.06;82.25;97329.55;104871;1272;74709;-26
2022/04/03 00:16:01;;;;;;;2.10;1.80;;;;;;;0.42;80.94;97327.02;104772;1274;76472;-27
2022/04/03 00:18:32;;;;;;;2.50;1.70;;;;;;;0.78;79.16;97329.05;104798;1274;73396;-27
2022/04/03 00:21:02;;;;;;;2.70;2.00;;;;;;;0.74;78.97;97326.55;104682;1272;61974;-27
2022/04/03 00:23:51;;;;;;;3.20;2.20;;;;;;;0.52;80.12;97324.81;104752;1271;61708;-27
2022/04/03 00:26:21;;;;;;;2.50;2.00;;;;;;;0.29;81.59;97322.95;104801;1274;74313;-27
2022/04/03 00:28:50;;;;;;;2.90;2.30;;;;;;;0.18;82.23;97325.55;104812;1274;75979;-26
2022/04/03 00:31:20;;;;;;;4.00;2.50;;;;;;;0.11;83.12;97328.73;104924;1274;75119;-27
2022/04/03 00:33:50;;;;;;;2.50;2.10;;;;;;;0.56;82.43;97328.66;104798;1271;61073;-27
2022/04/03 00:36:19;;;;;;;2.70;2.30;;;;;;;0.86;80.77;97328.50;104822;1272;61531;-27
2022/04/03 00:38:49;;;;;;;2.40;2.20;;;;;;;1.07;79.97;97326.89;104742;1272;74591;-27
2022/04/03 00:41:20;;;;;;;2.70;2.40;;;;;;;0.74;80.69;97328.24;104662;1272;76184;-27
2022/04/03 00:43:50;;;;;;;2.50;2.30;;;;;;;0.62;81.37;97329.09;104762;1272;74420;-27
2022/04/03 00:46:22;;;;;;;2.80;2.20;;;;;;;0.46;82.33;97328.84;104876;1271;61043;-27
2022/04/03 00:48:52;;;;;;;2.40;2.00;;;;;;;0.27;83.29;97323.90;104861;1271;61114;-27
2022/04/03 00:51:22;;;;;;;3.20;2.50;;;;;;;0.56;82.44;97324.20;104724;1274;75401;-27
2022/04/03 00:53:52;;;;;;;3.00;2.20;;;;;;;0.84;80.90;97315.48;104723;1274;74989;-27
2022/04/03 00:56:22;;;;;;;4.90;3.20;;;;;;;0.79;80.67;97314.45;104897;1271;74402;-27
2022/04/03 00:58:51;;;;;;;3.00;2.60;;;;;;;0.55;81.72;97317.08;104687;1271;62128;-27
2022/04/03 01:01:21;;;;;;;3.20;2.60;;;;;;;0.36;82.59;97315.77;104864;1271;61147;-27
2022/04/03 01:03:51;;;;;;;3.30;2.20;;;;;;;0.35;82.45;97316.92;104897;1271;76239;-27
2022/04/03 01:06:20;;;;;;;3.90;3.20;;;;;;;0.13;83.22;97317.80;104919;1271;76036;-26
2022/04/03 01:08:51;;;;;;;3.30;2.80;;;;;;;0.08;83.82;97313.87;104742;1274;74249;-27
2022/04/03 01:11:23;;;;;;;3.10;2.80;;;;;;;0.58;81.86;97321.17;104887;1271;61127;-26
2022/04/03 01:13:53;;;;;;;2.90;2.50;;;;;;;0.64;81.04;97319.40;104788;1271;61144;-27
2022/04/03 01:16:23;;;;;;;2.70;2.20;;;;;;;0.80;80.51;97321.02;105050;1271;74400;-27
2022/04/03 01:18:53;;;;;;;3.00;2.40;;;;;;;0.68;80.78;97318.62;104743;1271;76091;-26
2022/04/03 01:21:23;;;;;;;3.50;2.80;;;;;;;0.40;82.22;97319.96;104894;1271;73378;-28
2022/04/03 01:23:55;;;;;;;3.00;2.50;;;;;;;0.30;82.59;97317.26;104782;1274;61082;-27
2022/04/03 01:26:24;;;;;;;3.10;2.80;;;;;;;0.17;83.19;97318.91;104895;1271;61672;-26
2022/04/03 01:28:56;;;;;;;2.70;2.00;;;;;;;0.35;82.48;97316.90;104756;1274;75684;-26
2022/04/03 01:31:25;;;;;;;3.30;2.50;;;;;;;0.77;80.71;97318.88;104933;1271;74676;-26
2022/04/03 01:33:56;;;;;;;3.10;2.30;;;;;;;0.59;81.07;97319.71;104746;1271;73997;-27
2022/04/03 01:36:25;;;;;;;3.60;2.80;;;;;;;0.52;81.49;97322.95;104825;1271;61419;-27
2022/04/03 01:38:55;;;;;;;2.50;2.10;;;;;;;0.32;81.80;97326.18;104963;1271;61045;-26
2022/04/03 01:41:24;;;;;;;4.90;2.90;;;;;;;0.19;82.38;97326.32;105070;1271;75505;-27
2022/04/03 01:43:53;;;;;;;2.70;2.40;;;;;;;0.07;82.89;97325.02;105167;1271;75968;-27
2022/04/03 01:46:23;;;;;;;3.10;2.30;;;;;;;0.53;81.46;97328.48;105137;1271;75698;-28
2022/04/03 01:48:52;;;;;;;3.10;2.10;;;;;;;0.96;79.40;97330.19;105056;1274;62228;-26
2022/04/03 01:51:21;;;;;;;2.50;2.10;;;;;;;0.87;79.33;97334.86;104968;1271;61169;-26
2022/04/03 01:53:51;;;;;;;3.40;2.20;;;;;;;0.90;79.24;97335.70;104800;1272;74055;-26
2022/04/03 01:56:20;;;;;;;2.90;2.30;;;;;;;0.63;80.28;97332.41;104809;1273;76167;-26
2022/04/03 01:58:49;;;;;;;3.80;2.70;;;;;;;0.34;81.85;97331.48;104962;1274;74542;-26
2022/04/03 02:01:19;;;;;;;2.90;2.60;;;;;;;0.13;82.80;97325.71;104943;1271;61042;-26
2022/04/03 02:03:49;;;;;;;3.10;2.20;;;;;;;0.19;83.46;97325.83;104792;1274;61137;-28
2022/04/03 02:06:21;;;;;;;2.50;1.90;;;;;;;0.71;81.18;97330.67;104900;1271;75842;-26
2022/04/03 02:08:51;;;;;;;1.50;1.30;;;;;;;0.80;80.12;97326.34;104903;1271;76024;-26
2022/04/03 02:11:28;;;;;;;3.30;2.60;;;;;;;0.60;80.66;97323.27;104912;1271;74221;-27
2022/04/03 02:13:59;;;;;;;2.50;1.80;;;;;;;0.42;81.83;97326.70;104659;1274;61159;-26
2022/04/03 02:16:29;;;;;;;2.80;2.40;;;;;;;0.15;82.27;97319.45;104924;1271;62120;-26
2022/04/03 02:18:59;;;;;;;2.40;2.00;;;;;;;0.09;82.87;97325.96;104977;1271;74340;-28
2022/04/03 02:21:48;;;;;;;3.10;2.50;;;;;;;0.44;81.98;97326.88;104885;1271;76226;-27
2022/04/03 02:24:19;;;;;;;2.90;2.20;;;;;;;0.81;80.26;97326.28;104705;1271;74397;-26
2022/04/03 02:26:48;;;;;;;3.10;2.30;;;;;;;0.71;80.11;97329.30;104929;1271;62116;-26
2022/04/03 02:29:17;;;;;;;3.20;2.50;;;;;;;0.49;80.95;97327.90;104766;1271;61179;-26
2022/04/03 02:31:48;;;;;;;4.00;3.30;;;;;;;0.30;81.49;97327.13;104921;1271;73954;-26
2022/04/03 02:34:17;;;;;;;2.30;2.10;;;;;;;-0.02;83.04;97322.91;104931;1271;77094;-26
2022/04/03 02:36:46;;;;;;;4.40;2.40;;;;;;;0.33;82.47;97331.56;104915;1271;73362;-26
2022/04/03 02:39:15;;;;;;;3.20;2.20;;;;;;;0.69;80.60;97330.17;105008;1274;62161;-26
2022/04/03 02:41:46;;;;;;;2.70;2.00;;;;;;;0.79;79.95;97328.77;105004;1271;61751;-26
2022/04/03 02:44:15;;;;;;;3.80;2.50;;;;;;;0.54;80.91;97333.23;104833;1271;75694;-26
2022/04/03 02:46:45;;;;;;;3.30;1.90;;;;;;;0.22;82.54;97325.92;104813;1274;75979;-26
2022/04/03 02:49:14;;;;;;;4.30;3.50;;;;;;;0.27;82.18;97328.51;104846;1271;74484;-26
2022/04/03 02:51:44;;;;;;;3.70;2.90;;;;;;;0.13;82.85;97324.34;104757;1272;62143;-26
2022/04/03 02:54:13;;;;;;;3.20;2.80;;;;;;;0.59;81.43;97325.33;104812;1274;61921;-26
2022/04/03 02:56:42;;;;;;;3.90;3.20;;;;;;;0.81;80.09;97330.19;104826;1271;74540;-26
2022/04/03 02:59:12;;;;;;;2.80;1.90;;;;;;;0.79;79.95;97328.98;104754;1274;75980;-26
2022/04/03 03:01:41;;;;;;;2.60;2.00;;;;;;;0.67;80.69;97328.08;104725;1274;73364;-26
2022/04/03 03:04:12;;;;;;;2.50;2.20;;;;;;;0.55;81.08;97328.52;104712;1273;61247;-26
2022/04/03 03:06:41;;;;;;;2.40;2.00;;;;;;;0.35;81.67;97323.21;104800;1271;61136;-26
2022/04/03 03:09:11;;;;;;;1.80;1.00;;;;;;;0.17;83.16;97326.45;104790;1271;74206;-26
2022/04/03 03:11:41;;;;;;;2.30;1.80;;;;;;;0.63;81.88;97323.39;104810;1271;76373;-26
2022/04/03 03:14:10;;;;;;;3.10;2.70;;;;;;;0.85;80.68;97325.31;104953;1271;74883;-26
2022/04/03 03:16:39;;;;;;;2.80;1.60;;;;;;;0.41;82.44;97322.79;104873;1271;61155;-26
2022/04/03 03:19:09;;;;;;;3.80;2.80;;;;;;;0.30;83.02;97323.02;104801;1271;61057;-26
2022/04/03 03:21:39;;;;;;;6.00;3.90;;;;;;;0.17;84.06;97325.41;104801;1274;74635;-26
2022/04/03 03:24:22;;;;;;;;;;;;;;;0.04;85.13;97331.05;104798;1272;75792;-27
2022/04/03 03:27:11;;;;;;;2.10;1.30;;;;;;;0.66;83.00;97333.80;104818;1274;75557;-27
2022/04/03 03:29:41;;;;;;;2.40;2.00;;;;;;;0.76;82.06;97337.54;104690;1274;62196;-26
2022/04/03 03:32:11;;;;;;;4.80;2.60;;;;;;;0.64;82.76;97336.14;104689;1274;61145;-26
2022/04/03 03:34:40;;;;;;;1.60;1.50;;;;;;;0.31;84.03;97336.79;104787;1274;75535;-26
2022/04/03 03:37:11;;;;;;;3.20;2.90;;;;;;;0.31;83.75;97336.95;104686;1274;76335;-27
2022/04/03 03:39:42;;;;;;;2.40;1.60;;;;;;;0.05;84.90;97339.86;104783;1274;74306;-26
2022/04/03 03:42:13;;;;;;;2.20;1.90;;;;;;;0.56;84.18;97345.02;104800;1274;61151;-26
2022/04/03 03:44:42;;;;;;;2.00;1.80;;;;;;;0.78;82.13;97345.24;104937;1274;61766;-26
2022/04/03 03:47:13;;;;;;;1.80;1.50;;;;;;;0.79;82.09;97347.45;104979;1274;74516;-28
2022/04/03 03:49:42;;;;;;;2.30;2.00;;;;;;;0.46;83.19;97346.91;104702;1274;74985;-26
2022/04/03 03:52:12;;;;;;;3.40;2.90;;;;;;;0.20;84.41;97343.96;104759;1274;74454;-26
2022/04/03 03:54:41;;;;;;;3.30;2.60;;;;;;;0.03;85.77;97347.02;104834;1274;63523;-26
2022/04/03 03:57:12;;;;;;;3.90;2.50;;;;;;;0.30;85.16;97349.31;104896;1274;61797;-26
2022/04/03 03:59:47;;;;;;;3.40;2.90;;;;;;;0.50;84.10;97349.85;104842;1274;75276;-26
2022/04/03 04:02:17;;;;;;;1.70;1.40;;;;;;;0.46;84.25;97354.41;105122;1273;75026;-26
2022/04/03 04:04:47;;;;;;;2.90;2.30;;;;;;;0.29;84.64;97354.66;104763;1274;73333;-26
2022/04/03 04:07:16;;;;;;;4.60;3.00;;;;;;;0.16;85.12;97355.55;104673;1274;61264;-26
2022/04/03 04:09:46;;;;;;;1.90;1.70;;;;;;;-0.03;86.21;97356.27;104696;1274;61120;-26
2022/04/03 04:12:17;;;;;;;7.20;3.60;;;;;;;0.45;84.78;97360.98;104954;1274;74612;-27
2022/04/03 04:14:52;;;;;;;6.60;4.00;;;;;;;0.75;83.38;97363.39;104923;1271;76069;-27
2022/04/03 04:17:23;;;;;;;11.80;5.90;;;;;;;0.65;83.52;97366.48;105070;1274;73463;-26
2022/04/03 04:19:54;;;;;;;7.20;3.80;;;;;;;0.30;84.45;97367.80;104690;1274;61077;-27
2022/04/03 04:22:23;;;;;;;3.40;2.50;;;;;;;0.04;85.85;97368.05;104783;1273;62078;-26
2022/04/03 04:24:53;;;;;;;8.20;4.70;;;;;;;0.16;85.61;97370.55;104795;1273;73640;-27
2022/04/03 04:27:22;;;;;;;7.10;4.60;;;;;;;0.52;84.31;97372.45;104720;1274;75774;-26
2022/04/03 04:29:51;;;;;;;4.50;3.50;;;;;;;0.75;83.21;97375.35;104765;1274;73798;-27
2022/04/03 04:32:21;;;;;;;8.30;3.50;;;;;;;0.52;83.88;97376.89;104761;1274;61856;-26
2022/04/03 04:34:51;;;;;;;6.90;3.10;;;;;;;0.38;83.98;97375.11;104757;1274;61058;-26
2022/04/03 04:37:20;;;;;;;4.90;3.20;;;;;;;0.09;84.89;97376.09;105147;1274;75381;-27
2022/04/03 04:39:50;;;;;;;5.30;2.80;;;;;;;0.30;84.79;97379.06;105118;1274;75848;-26
2022/04/03 04:42:20;;;;;;;7.80;4.50;;;;;;;0.72;83.07;97389.38;104631;1274;73370;-26
2022/04/03 04:44:49;;;;;;;10.80;5.40;;;;;;;0.69;82.85;97385.48;104673;1274;61160;-27
2022/04/03 04:47:18;;;;;;;5.10;3.20;;;;;;;0.45;83.67;97388.27;104799;1274;61041;-27
2022/04/03 04:49:48;;;;;;;4.60;3.30;;;;;;;0.33;84.31;97388.73;104708;1274;74577;-27
2022/04/03 04:52:18;;;;;;;4.40;3.20;;;;;;;0.23;84.62;97390.09;104798;1272;76394;-26
2022/04/03 04:54:47;;;;;;;4.40;3.10;;;;;;;0.35;84.59;97389.80;104684;1274;74398;-26
2022/04/03 04:57:17;;;;;;;3.30;2.60;;;;;;;0.59;83.33;97391.27;104813;1274;61095;-26
2022/04/03 04:59:46;;;;;;;2.80;2.10;;;;;;;0.60;83.25;97392.27;104808;1274;61799;-27
2022/04/03 05:02:16;;;;;;;2.60;2.10;;;;;;;0.51;83.72;97394.23;104644;1274;75236;-28
2022/04/03 05:04:46;;;;;;;6.40;4.20;;;;;;;0.18;85.02;97394.28;104787;1275;75083;-27
2022/04/03 05:07:16;;;;;;;5.00;4.00;;;;;;;-0.05;85.97;97396.15;104765;1274;74474;-26
2022/04/03 05:09:46;;;;;;;3.30;2.70;;;;;;;0.17;85.81;97401.05;104842;1274;61131;-26
2022/04/03 05:12:18;;;;;;;5.20;4.10;;;;;;;0.60;83.77;97405.40;104618;1275;61890;-26
2022/04/03 05:15:10;;;;;;;3.70;3.20;;;;;;;0.49;83.43;97407.32;104613;1274;76753;-25
2022/04/03 05:17:40;;;;;;;5.10;2.60;;;;;;;0.20;84.40;97404.58;104645;1274;73959;-26
2022/04/03 05:20:12;;;;;;;11.00;4.70;;;;;;;-0.00;85.34;97401.46;104675;1275;73261;-25
2022/04/03 05:22:42;;;;;;;2.90;2.10;;;;;;;-0.14;86.47;97404.05;104683;1274;62995;-24
2022/04/03 05:25:11;;;;;;;2.60;1.80;;;;;;;0.35;84.72;97409.23;104613;1274;61158;-25
2022/04/03 05:27:41;;;;;;;4.00;2.70;;;;;;;0.48;84.24;97412.20;104845;1274;74471;-24
2022/04/03 05:30:12;;;;;;;5.30;3.60;;;;;;;0.26;85.06;97411.56;104726;1274;76857;-24
2022/04/03 05:32:41;;;;;;;3.60;3.10;;;;;;;0.15;85.24;97410.90;104851;1274;74314;-23
2022/04/03 05:35:13;;;;;;;3.80;2.20;;;;;;;-0.14;86.41;97412.36;105012;1274;61134;-22
2022/04/03 05:37:44;;;;;;;5.20;3.50;;;;;;;0.16;85.54;97413.86;104544;1277;61763;-22
2022/04/03 05:40:15;;;;;;;3.90;2.30;;;;;;;0.31;84.92;97417.73;104935;1271;75547;-22
2022/04/03 05:42:44;;;;;;;2.50;1.70;;;;;;;0.43;84.51;97422.91;105048;1274;76000;-23
2022/04/03 05:45:14;;;;;;;5.10;3.20;;;;;;;0.44;84.23;97424.88;105015;1273;73126;-23
2022/04/03 05:47:43;;;;;;;5.50;4.00;;;;;;;0.15;85.19;97423.34;104903;1271;61014;-23
2022/04/03 05:50:14;;;;;;;2.80;2.30;;;;;;;0.01;85.92;97431.10;104626;1271;354577;-23
2022/04/03 05:52:47;;;;;;;3.00;2.30;;;;;;;0.43;84.51;97433.30;104943;1271;75603;-24
2022/04/03 05:55:17;;;;;;;5.60;3.40;;;;;;;0.54;83.30;97431.73;104891;1271;76028;-24
2022/04/03 05:57:49;;;;;;;5.70;2.80;;;;;;;0.47;83.81;97433.55;104655;1274;74667;-24
2022/04/03 06:00:19;;;;;;;6.10;3.10;;;;;;;0.30;84.08;97435.91;104637;1271;62486;-24
2022/04/03 06:02:51;;;;;;;4.00;2.40;;;;;;;0.01;84.51;97439.90;104738;1271;61553;-25
2022/04/03 06:05:22;;;;;;;5.00;2.90;;;;;;;0.08;84.97;97442.55;104879;1271;75535;-26
2022/04/03 06:07:52;;;;;;;2.70;2.10;;;;;;;0.30;83.85;97443.56;104856;1271;75989;-26
2022/04/03 06:10:23;;;;;;;4.20;2.60;;;;;;;0.42;83.35;97447.20;104802;1273;74381;-26
2022/04/03 06:13:00;;;;;;;3.80;2.70;;;;;;;0.28;83.64;97446.59;104884;1271;61385;-25
2022/04/03 06:15:37;;;;;;;5.90;3.00;;;;;;;0.12;84.49;97447.09;104971;1271;60941;-25
2022/04/03 06:18:08;;;;;;;4.60;2.40;;;;;;;0.09;84.74;97447.27;105155;1271;75516;-26
2022/04/03 06:20:38;;;;;;;2.30;1.70;;;;;;;0.41;83.35;97445.91;105144;1274;76025;-26
2022/04/03 06:23:26;;;;;;;3.00;2.30;;;;;;;0.49;82.57;97449.36;105106;1271;73331;-26
2022/04/03 06:25:57;;;;;;;2.80;2.20;;;;;;;0.51;82.77;97454.15;104904;1271;61157;-26
2022/04/03 06:28:26;;;;;;;2.70;2.30;;;;;;;0.24;83.80;97454.16;104899;1271;62226;-26
2022/04/03 06:30:56;;;;;;;3.00;2.10;;;;;;;0.05;84.54;97457.60;104803;1274;75590;-26
2022/04/03 06:33:25;;;;;;;2.50;1.70;;;;;;;0.06;84.36;97456.19;104910;1271;76007;-27
2022/04/03 06:35:55;;;;;;;5.40;3.30;;;;;;;0.20;84.10;97458.83;104900;1271;74371;-27
2022/04/03 06:38:24;;;;;;;3.50;2.10;;;;;;;0.09;83.86;97459.89;104918;1271;61170;-27
2022/04/03 06:40:54;;;;;;;3.20;2.40;;;;;;;-0.04;84.94;97459.36;104790;1274;60981;-28
2022/04/03 06:43:25;;;;;;;3.30;2.80;;;;;;;-0.03;85.07;97463.91;104823;1272;74520;-29
2022/04/03 06:45:56;;;;;;;6.00;3.70;;;;;;;-0.14;85.18;97466.48;104780;1271;75761;-30
2022/04/03 06:48:26;;;;;;;3.20;2.50;;;;;;;0.27;83.73;97465.44;104833;1271;74264;-30
2022/04/03 06:50:56;;;;;;;3.90;2.30;;;;;;;0.26;83.17;97465.67;104771;1271;61290;-28
2022/04/03 06:53:25;;;;;;;7.10;4.40;;;;;;;0.04;84.04;97467.75;104780;1272;61111;-29
2022/04/03 06:55:54;;;;;;;11.40;5.70;;;;;;;-0.19;84.38;97471.39;104785;1272;74412;-29
2022/04/03 06:58:24;;;;;;;4.60;1.90;;;;;;;-0.18;85.21;97472.67;104769;1271;75103;-29
2022/04/03 07:00:54;;;;;;;7.80;4.70;;;;;;;0.18;83.65;97476.06;104775;1271;74463;-30
2022/04/03 07:03:26;;;;;;;4.10;3.00;;;;;;;0.31;82.81;97479.87;104753;1271;61154;-30
2022/04/03 07:06:05;;;;;;;4.20;3.10;;;;;;;0.15;83.50;97482.73;104756;1272;61738;-29
2022/04/03 07:08:35;;;;;;;2.40;2.20;;;;;;;0.07;84.39;97489.71;104777;1271;75574;-29
2022/04/03 07:11:05;;;;;;;4.10;2.40;;;;;;;-0.06;85.35;97491.09;104800;1272;74061;-29
2022/04/03 07:15:54;;;;;;;2.60;2.10;;;;;;;0.01;84.08;97493.88;101783;1310;601080;-27
2022/04/03 07:18:24;;;;;;;3.50;2.50;;;;;;;-0.37;83.56;97494.67;104343;1285;61190;-28
2022/04/03 07:20:53;;;;;;;6.50;3.60;;;;;;;-0.32;83.75;97499.85;104444;1284;61088;-28
2022/04/03 07:23:25;;;;;;;4.10;3.20;;;;;;;-0.39;84.57;97509.49;104416;1284;73923;-28
2022/04/03 07:25:54;;;;;;;3.40;2.10;;;;;;;-0.62;85.31;97505.40;104404;1284;76110;-28
2022/04/03 07:28:24;;;;;;;3.20;2.10;;;;;;;-0.41;85.13;97507.55;104114;1284;423615;-29
2022/04/03 07:30:53;;;;;;;2.90;2.50;;;;;;;-0.21;83.98;97509.36;104472;1281;61660;-28
2022/04/03 07:33:24;;;;;;;3.80;2.70;;;;;;;-0.13;83.82;97512.15;104513;1281;61077;-28
2022/04/03 07:35:55;;;;;;;16.60;14.90;;;;;;;-0.33;85.15;97515.08;104443;1283;73970;-28
2022/04/03 07:38:24;;;;;;;5.20;3.10;;;;;;;-0.42;85.46;97519.00;104432;1281;74322;-28
2022/04/03 07:40:54;;;;;;;3.80;2.40;;;;;;;-0.10;84.14;97521.02;104250;1281;76374;-29
2022/04/03 07:43:23;;;;;;;3.20;2.50;;;;;;;-0.07;84.12;97523.23;104897;1276;62126;-29
2022/04/03 07:45:53;;;;;;;5.50;2.80;;;;;;;0.07;83.73;97525.88;104820;1275;62071;-29
2022/04/03 07:48:23;;;;;;;3.60;2.30;;;;;;;-0.05;84.14;97526.46;104591;1277;74682;-29
2022/04/03 07:50:52;;;;;;;5.40;3.20;;;;;;;-0.44;85.13;97528.86;104601;1276;76147;-29
2022/04/03 07:53:23;;;;;;;6.20;2.80;;;;;;;-0.19;84.65;97530.05;104686;1277;73404;-29
2022/04/03 07:55:53;;;;;;;4.00;2.30;;;;;;;-0.05;83.96;97531.61;104612;1277;61700;-30
2022/04/03 07:58:22;;;;;;;4.90;2.70;;;;;;;-0.17;84.51;97533.01;104584;1277;61156;-30
2022/04/03 08:00:51;;;;;;;4.10;2.60;;;;;;;0.02;84.13;97534.27;104649;1277;73277;-29
2022/04/03 08:03:20;;;;;;;3.70;2.80;;;;;;;-0.13;84.38;97532.08;104638;1277;74844;-30
2022/04/03 08:05:49;;;;;;;2.50;2.20;;;;;;;-0.25;85.11;97536.58;104583;1277;73344;-29
2022/04/03 08:08:27;;;;;;;3.50;2.30;;;;;;;0.13;83.48;97540.20;104597;1277;61230;-28
2022/04/03 08:10:57;;;;;;;4.60;2.00;;;;;;;0.34;82.76;97539.41;104671;1277;60957;-27
2022/04/03 08:13:30;;;;;;;2.40;1.80;;;;;;;0.28;82.50;97541.80;104633;1277;74124;-28
2022/04/03 08:16:03;;;;;;;3.50;2.60;;;;;;;0.00;84.01;97540.31;104633;1277;75209;-29
2022/04/03 08:18:48;;;;;;;3.20;2.70;;;;;;;-0.03;84.63;97545.67;104574;1277;74413;-33
2022/04/03 08:21:18;;;;;;;4.40;2.60;;;;;;;-0.02;84.51;97542.17;104651;1277;61911;-34
2022/04/03 08:23:48;;;;;;;4.70;2.40;;;;;;;0.48;82.90;97547.04;104593;1277;61712;-33
2022/04/03 08:26:19;;;;;;;3.30;2.30;;;;;;;0.66;82.01;97546.27;104849;1276;73047;-32
2022/04/03 08:28:50;;;;;;;5.00;2.70;;;;;;;0.67;81.33;97548.56;104833;1275;76114;-28
2022/04/03 08:31:23;;;;;;;3.30;2.50;;;;;;;0.32;82.49;97548.73;104847;1277;72258;-27
2022/04/03 08:33:52;;;;;;;2.50;1.60;;;;;;;0.09;83.25;97550.33;104515;1278;61708;-26
2022/04/03 08:36:21;;;;;;;1.70;1.20;;;;;;;-0.08;83.18;97548.52;104699;1277;61835;-24
2022/04/03 08:38:52;;;;;;;2.00;1.30;;;;;;;0.32;82.56;97546.85;104656;1277;74752;-22
2022/04/03 08:41:21;;;;;;;2.70;1.90;;;;;;;0.37;81.98;97546.23;104615;1277;76013;-23
2022/04/03 08:43:52;;;;;;;2.30;1.60;;;;;;;0.49;81.67;97542.20;104612;1277;74558;-23
2022/04/03 08:46:22;;;;;;;5.10;2.40;;;;;;;0.54;82.49;97546.17;104603;1277;61074;-25
2022/04/03 08:48:51;;;;;;;4.30;1.70;;;;;;;0.30;82.32;97542.73;104313;1277;61005;-26
2022/04/03 08:51:20;;;;;;;4.00;1.90;;;;;;;-0.02;84.04;97545.42;104403;1277;74969;-23
2022/04/03 08:53:50;;;;;;;4.10;2.20;;;;;;;0.16;84.40;97549.42;104375;1277;75007;-23
2022/04/03 08:56:19;;;;;;;3.30;2.50;;;;;;;0.61;82.53;97550.66;104389;1277;74404;-23
2022/04/03 08:58:48;;;;;;;4.70;3.10;;;;;;;0.43;82.12;97547.04;104434;1277;61986;-23
2022/04/03 09:01:19;;;;;;;3.00;1.90;;;;;;;0.05;83.65;97551.77;104603;1277;61049;-24
2022/04/03 09:03:50;;;;;;;3.00;2.20;;;;;;;0.11;83.44;97556.88;104634;1277;73565;-24
2022/04/03 09:06:21;;;;;;;1.60;1.40;;;;;;;-0.16;84.46;97558.87;104300;1277;74780;-24
2022/04/03 09:08:51;;;;;;;1.00;0.90;;;;;;;-0.02;84.48;97561.92;104387;1277;72411;-24
2022/04/03 09:11:20;;;;;;;2.70;1.40;;;;;;;0.30;83.31;97564.05;104569;1277;61101;-25
2022/04/03 09:13:50;;;;;;;3.90;2.60;;;;;;;0.25;82.66;97566.39;104594;1277;60936;-27
2022/04/03 09:16:38;;;;;;;2.30;1.60;;;;;;;-0.08;84.14;97568.31;104647;1277;74512;-24
2022/04/03 09:19:09;;;;;;;2.00;1.80;;;;;;;-0.29;85.08;97572.42;104593;1277;76093;-24
2022/04/03 09:21:38;;;;;;;3.40;2.40;;;;;;;-0.34;85.73;97571.71;104594;1277;73041;-26
2022/04/03 09:24:10;;;;;;;2.50;2.20;;;;;;;-0.29;86.28;97577.79;104671;1276;61929;-25
2022/04/03 09:26:41;;;;;;;2.00;1.60;;;;;;;0.20;84.64;97578.83;104636;1277;61879;-25
2022/04/03 09:29:12;;;;;;;2.90;2.20;;;;;;;0.45;82.99;97576.62;104492;1277;73722;-25
2022/04/03 09:31:44;;;;;;;3.80;2.90;;;;;;;0.15;83.06;97583.23;104313;1278;76001;-25
2022/04/03 09:34:17;;;;;;;2.40;2.10;;;;;;;-0.08;83.79;97583.52;104615;1277;74229;-26
2022/04/03 09:36:56;;;;;;;4.20;2.90;;;;;;;-0.40;85.35;97589.67;104615;1277;61678;-26
2022/04/03 09:39:30;;;;;;;3.10;1.70;;;;;;;-0.23;85.29;97588.98;104355;1277;61661;-26
2022/04/03 09:42:01;;;;;;;3.30;1.90;;;;;;;0.17;83.82;97591.87;104577;1277;74859;-27
2022/04/03 09:44:37;;;;;;;3.50;2.70;;;;;;;0.21;82.93;97590.90;104623;1277;76683;-27
2022/04/03 09:47:21;;;;;;;2.90;1.80;;;;;;;0.03;83.66;97593.92;104385;1277;74410;-27
2022/04/03 09:49:58;;;;;;;2.70;2.00;;;;;;;-0.04;83.74;97590.75;104601;1276;61071;-27
2022/04/03 09:52:48;;;;;;;4.80;4.00;;;;;;;-0.07;83.49;97595.90;104630;1277;61009;-27
2022/04/03 09:55:21;;;;;;;4.50;3.50;;;;;;;-0.17;83.51;97597.34;104502;1277;74762;-27
2022/04/03 09:58:04;;;;;;;;;;;;;;;-0.08;82.71;97592.16;104606;1277;76086;-27
2022/04/03 10:00:49;;;;;;;2.50;2.10;;;;;;;0.19;82.25;97601.61;104399;1277;74405;-27
2022/04/03 10:03:19;;;;;;;3.20;2.60;;;;;;;0.27;81.73;97606.61;104622;1277;61413;-27
2022/04/03 10:05:51;;;;;;;5.10;3.10;;;;;;;-0.16;83.23;97608.51;104341;1277;61181;-27
2022/04/03 10:08:21;;;;;;;5.10;3.80;;;;;;;-0.37;84.95;97612.67;104599;1277;74806;-27
2022/04/03 10:11:10;;;;;;;3.30;2.20;;;;;;;-0.41;85.08;97616.65;104576;1277;77100;-27
2022/04/03 10:13:39;;;;;;;3.40;2.30;;;;;;;-0.19;83.57;97616.20;104562;1277;74369;-27
2022/04/03 10:16:10;;;;;;;2.30;1.70;;;;;;;-0.20;83.98;97621.21;104398;1277;62045;-27
2022/04/03 10:18:41;;;;;;;3.00;2.00;;;;;;;-0.01;83.58;97621.61;104345;1277;61138;-26
2022/04/03 10:21:19;;;;;;;4.10;2.60;;;;;;;-0.42;84.07;97620.47;104446;1276;73582;-26
2022/04/03 10:23:49;;;;;;;5.10;3.40;;;;;;;-0.50;84.47;97619.76;104682;1277;73961;-27
2022/04/03 10:26:20;;;;;;;3.40;2.40;;;;;;;-0.36;84.00;97622.88;104376;1277;73370;-27
2022/04/03 10:28:52;;;;;;;3.50;3.00;;;;;;;0.01;82.91;97623.08;104375;1277;61144;-28
2022/04/03 10:31:22;;;;;;;3.70;2.70;;;;;;;0.35;81.19;97621.46;104573;1277;61418;-26
2022/04/03 10:33:52;;;;;;;2.70;2.40;;;;;;;0.17;82.04;97623.10;104596;1277;73294;-26
2022/04/03 10:36:30;;;;;;;4.00;2.70;;;;;;;-0.13;83.20;97624.06;104650;1277;75001;-26
2022/04/03 10:39:10;;;;;;;4.00;1.90;;;;;;;-0.04;83.33;97621.48;104414;1277;72353;-27
2022/04/03 10:41:40;;;;;;;3.00;2.40;;;;;;;-0.32;84.63;97623.30;104553;1277;63064;-27
2022/04/03 10:44:11;;;;;;;3.30;2.10;;;;;;;0.01;84.02;97627.11;104637;1276;61176;-28
2022/04/03 10:46:59;;;;;;;2.80;1.90;;;;;;;0.23;82.95;97625.45;104604;1277;74989;-28
2022/04/03 10:49:48;;;;;;;2.70;1.60;;;;;;;0.23;83.18;97628.89;104812;1277;75063;-27
2022/04/03 10:52:42;;;;;;;3.50;2.70;;;;;;;-0.06;83.94;97628.59;104645;1277;73773;-28
2022/04/03 10:55:27;;;;;;;2.60;2.00;;;;;;;-0.54;86.07;97623.94;104692;1277;60913;-27
2022/04/03 10:58:06;;;;;;;3.10;1.90;;;;;;;-0.35;86.55;97633.73;104578;1277;61058;-27
2022/04/03 11:00:37;;;;;;;1.70;1.60;;;;;;;-0.11;84.74;97633.33;104534;1276;74788;-27
2022/04/03 11:03:19;;;;;;;4.10;2.50;;;;;;;0.03;83.17;97634.71;104606;1277;73939;-27
2022/04/03 11:05:51;;;;;;;2.90;2.10;;;;;;;0.00;83.01;97636.55;104620;1277;73428;-26
2022/04/03 11:08:59;;;;;;;2.70;2.00;;;;;;;-0.13;83.22;97635.29;104526;1277;61141;-27
2022/04/03 11:11:54;;;;;;;3.20;1.90;;;;;;;-0.39;84.82;97640.23;104243;1277;61200;-27
2022/04/03 11:14:52;;;;;;;4.20;2.20;;;;;;;-0.25;83.49;97646.09;104387;1276;74749;-27
2022/04/03 11:17:48;;;;;;;3.60;2.30;;;;;;;0.16;83.33;97650.80;104561;1277;76013;-27
2022/04/03 11:20:42;;;;;;;2.90;1.00;;;;;;;-0.01;82.01;97655.02;104349;1277;73178;-27
2022/04/03 11:23:17;;;;;;;3.30;2.50;;;;;;;0.11;82.32;97655.54;104578;1277;61137;-27
2022/04/03 11:25:48;;;;;;;2.50;2.10;;;;;;;-0.21;82.27;97655.41;104486;1277;61487;-27
2022/04/03 11:28:34;;;;;;;3.10;1.80;;;;;;;-0.48;84.32;97659.19;104452;1277;74513;-27
2022/04/03 11:31:04;;;;;;;2.60;2.10;;;;;;;-0.20;84.15;97661.96;104383;1277;76163;-27
2022/04/03 11:33:35;;;;;;;2.40;2.20;;;;;;;0.33;82.72;97670.95;104523;1274;74263;-27
2022/04/03 11:36:13;;;;;;;3.40;3.00;;;;;;;0.34;82.23;97669.85;104593;1274;60935;-27
2022/04/03 11:38:48;;;;;;;3.80;2.60;;;;;;;-0.04;82.91;97672.46;104619;1274;61446;-27
2022/04/03 11:41:22;;;;;;;3.60;1.80;;;;;;;-0.00;83.64;97676.48;104706;1274;73733;-27
2022/04/03 11:44:10;;;;;;;4.40;2.50;;;;;;;-0.26;85.02;97675.15;104633;1274;75958;-27
2022/04/03 11:46:48;;;;;;;3.70;1.90;;;;;;;-0.06;83.78;97681.97;104478;1274;73156;-27
2022/04/03 11:49:25;;;;;;;4.50;3.30;;;;;;;-0.25;82.20;97679.66;104565;1274;61156;-27
2022/04/03 11:52:06;;;;;;;2.30;2.10;;;;;;;-0.39;82.29;97683.25;104550;1275;61211;-28
2022/04/03 11:54:40;;;;;;;3.00;2.30;;;;;;;-0.50;82.57;97686.89;104363;1274;73628;-29
2022/04/03 11:57:10;;;;;;;3.60;2.40;;;;;;;-0.77;82.69;97685.88;104530;1274;74919;-28